createdAt,value
2023-03-01T00:00:16.190Z,3.89
2023-03-01T00:02:48.516Z,3.90
2023-03-01T00:05:20.810Z,3.89
2023-03-01T00:07:53.629Z,3.82
2023-03-01T00:10:26.834Z,3.84
2023-03-01T00:12:59.146Z,3.83
2023-03-01T00:15:31.556Z,3.85
2023-03-01T00:18:03.847Z,3.83
2023-03-01T00:20:36.414Z,3.66
2023-03-01T00:23:08.718Z,3.60
2023-03-01T00:25:42.929Z,3.46
2023-03-01T00:28:15.283Z,3.42
2023-03-01T00:30:48.877Z,3.45
2023-03-01T00:33:21.332Z,3.44
2023-03-01T00:35:53.781Z,3.36
2023-03-01T00:38:26.084Z,3.30
2023-03-01T00:41:05.053Z,3.26
2023-03-01T00:43:37.860Z,3.36
2023-03-01T00:46:12.137Z,3.31
2023-03-01T00:48:44.965Z,3.36
2023-03-01T00:51:19.623Z,3.39
2023-03-01T00:53:52.876Z,3.29
2023-03-01T00:56:26.608Z,3.38
2023-03-01T00:58:59.103Z,3.40
2023-03-01T01:01:32.209Z,3.42
2023-03-01T01:04:09.789Z,3.35
2023-03-01T01:06:44.955Z,3.34
2023-03-01T01:09:18.492Z,3.45
2023-03-01T01:11:52.018Z,3.54
2023-03-01T01:14:24.993Z,3.64
2023-03-01T01:16:57.831Z,3.68
2023-03-01T01:19:30.360Z,3.73
2023-03-01T01:22:03.576Z,3.81
2023-03-01T01:24:36.153Z,3.72
2023-03-01T01:27:09.223Z,3.73
2023-03-01T01:29:42.272Z,3.73
2023-03-01T01:32:14.857Z,3.71
2023-03-01T01:34:47.203Z,3.67
2023-03-01T01:37:19.519Z,3.65
2023-03-01T01:39:51.786Z,3.59
2023-03-01T01:42:24.771Z,3.63
2023-03-01T01:45:33.114Z,3.52
2023-03-01T01:48:11.586Z,3.43
2023-03-01T01:50:45.309Z,3.28
2023-03-01T01:53:20.039Z,3.27
2023-03-01T01:55:57.236Z,3.25
2023-03-01T01:58:31.277Z,3.21
2023-03-01T02:01:04.747Z,3.22
2023-03-01T02:03:42.524Z,3.24
2023-03-01T02:06:20.124Z,3.20
2023-03-01T02:08:53.683Z,3.19
2023-03-01T02:11:27.838Z,3.26
2023-03-01T02:14:01.469Z,3.26
2023-03-01T02:16:34.636Z,3.25
2023-03-01T02:19:08.376Z,3.14
2023-03-01T02:21:53.768Z,3.01
2023-03-01T02:24:34.200Z,3.05
2023-03-01T02:27:08.064Z,3.09
2023-03-01T02:29:44.234Z,3.09
2023-03-01T02:32:25.425Z,3.02
2023-03-01T02:34:58.060Z,2.91
2023-03-01T02:37:30.326Z,2.77
2023-03-01T02:40:07.100Z,2.80
2023-03-01T02:42:48.263Z,2.85
2023-03-01T02:45:21.835Z,2.86
2023-03-01T02:47:55.169Z,2.78
2023-03-01T02:50:53.196Z,2.79
2023-03-01T02:53:35.573Z,2.73
2023-03-01T02:56:13.230Z,2.84
2023-03-01T02:58:51.214Z,2.84
2023-03-01T03:01:36.594Z,2.79
2023-03-01T03:04:17.896Z,2.80
2023-03-01T03:06:52.458Z,2.73
2023-03-01T03:09:24.768Z,2.70
2023-03-01T03:11:57.101Z,2.70
2023-03-01T03:14:29.750Z,2.65
2023-03-01T03:17:06.883Z,2.68
2023-03-01T03:19:39.158Z,2.68
2023-03-01T03:22:11.544Z,2.66
2023-03-01T03:24:43.853Z,2.63
2023-03-01T03:27:16.156Z,2.71
2023-03-01T03:29:48.476Z,2.73
2023-03-01T03:32:21.589Z,2.64
2023-03-01T03:34:53.885Z,2.65
2023-03-01T03:37:44.424Z,2.66
2023-03-01T03:40:16.902Z,2.71
2023-03-01T03:42:49.365Z,2.74
2023-03-01T03:45:21.802Z,2.68
2023-03-01T03:47:54.794Z,2.66
2023-03-01T03:50:27.240Z,2.75
2023-03-01T03:53:01.479Z,2.77
2023-03-01T03:55:34.340Z,2.68
2023-03-01T03:58:08.390Z,2.71
2023-03-01T04:00:44.478Z,2.76
2023-03-01T04:03:18.996Z,2.87
2023-03-01T04:05:52.144Z,2.82
2023-03-01T04:08:24.501Z,2.77
2023-03-01T04:11:22.840Z,2.90
2023-03-01T04:13:57.434Z,2.91
2023-03-01T04:16:30.159Z,2.95
2023-03-01T04:19:03.718Z,2.79
2023-03-01T04:21:36.784Z,2.87
2023-03-01T04:24:09.927Z,2.87
2023-03-01T04:26:42.248Z,2.85
2023-03-01T04:29:14.621Z,2.87
2023-03-01T04:31:49.619Z,2.92
2023-03-01T04:34:22.691Z,3.00
2023-03-01T04:36:55.255Z,2.86
2023-03-01T04:39:27.594Z,2.79
2023-03-01T04:41:59.891Z,2.85
2023-03-01T04:44:32.172Z,2.73
2023-03-01T04:47:04.549Z,2.87
2023-03-01T04:49:37.502Z,2.91
2023-03-01T04:52:09.845Z,2.91
2023-03-01T04:54:43.446Z,2.87
2023-03-01T04:57:15.715Z,2.86
2023-03-01T04:59:47.988Z,2.79
2023-03-01T05:02:20.255Z,2.80
2023-03-01T05:04:57.826Z,2.81
2023-03-01T05:07:30.075Z,2.74
2023-03-01T05:10:02.307Z,2.78
2023-03-01T05:12:34.621Z,2.81
2023-03-01T05:15:08.037Z,2.87
2023-03-01T05:17:40.322Z,2.86
2023-03-01T05:20:13.676Z,2.88
2023-03-01T05:22:45.953Z,2.94
2023-03-01T05:25:18.459Z,2.90
2023-03-01T05:27:51.107Z,2.89
2023-03-01T05:30:23.408Z,2.94
2023-03-01T05:32:55.925Z,2.99
2023-03-01T05:35:29.808Z,3.06
2023-03-01T05:38:02.188Z,3.21
2023-03-01T05:40:35.154Z,3.20
2023-03-01T05:43:07.531Z,3.18
2023-03-01T05:45:40.865Z,3.17
2023-03-01T05:48:13.978Z,3.16
2023-03-01T05:50:47.506Z,3.23
2023-03-01T05:53:21.414Z,3.27
2023-03-01T05:55:53.718Z,3.26
2023-03-01T05:58:26.046Z,3.23
2023-03-01T06:00:58.417Z,3.26
2023-03-01T06:03:30.654Z,3.27
2023-03-01T06:06:03.960Z,3.20
2023-03-01T06:08:36.227Z,3.30
2023-03-01T06:11:08.535Z,3.33
2023-03-01T06:13:42.358Z,3.35
2023-03-01T06:16:15.361Z,3.29
2023-03-01T06:18:47.682Z,3.29
2023-03-01T06:21:20.706Z,3.23
2023-03-01T06:23:53.079Z,3.18
2023-03-01T06:26:25.393Z,3.28
2023-03-01T06:28:57.666Z,3.31
2023-03-01T06:31:29.945Z,3.26
2023-03-01T06:34:02.321Z,3.33
2023-03-01T06:36:35.239Z,3.19
2023-03-01T06:39:07.833Z,3.22
2023-03-01T06:41:40.188Z,3.25
2023-03-01T06:44:12.501Z,3.24
2023-03-01T06:46:44.839Z,3.28
2023-03-01T06:49:18.089Z,3.42
2023-03-01T06:51:51.135Z,3.30
2023-03-01T06:54:23.781Z,3.31
2023-03-01T06:56:56.086Z,3.31
2023-03-01T06:59:28.553Z,3.41
2023-03-01T07:02:00.860Z,3.44
2023-03-01T07:04:33.222Z,3.44
2023-03-01T07:07:06.448Z,3.46
2023-03-01T07:09:38.789Z,3.43
2023-03-01T07:12:11.205Z,3.42
2023-03-01T07:14:44.940Z,3.56
2023-03-01T07:17:17.230Z,3.63
2023-03-01T07:19:49.490Z,3.62
2023-03-01T07:22:22.458Z,3.59
2023-03-01T07:24:54.762Z,3.58
2023-03-01T07:27:27.052Z,3.58
2023-03-01T07:29:59.333Z,3.57
2023-03-01T07:32:31.772Z,3.65
2023-03-01T07:35:04.574Z,3.57
2023-03-01T07:37:37.597Z,3.64
2023-03-01T07:40:10.899Z,3.71
2023-03-01T07:42:43.297Z,3.59
2023-03-01T07:45:15.658Z,3.69
2023-03-01T07:47:47.922Z,3.64
2023-03-01T07:50:20.694Z,3.71
2023-03-01T07:52:53.758Z,3.78
2023-03-01T07:55:26.155Z,3.73
2023-03-01T07:57:58.537Z,3.79
2023-03-01T08:00:31.007Z,3.79
2023-03-01T08:03:03.590Z,3.90
2023-03-01T08:05:36.010Z,3.93
2023-03-01T08:08:09.010Z,3.91
2023-03-01T08:10:41.469Z,3.92
2023-03-01T08:13:13.888Z,3.98
2023-03-01T08:15:46.316Z,4.00
2023-03-01T08:18:20.242Z,4.16
2023-03-01T08:20:52.632Z,4.28
2023-03-01T08:23:25.921Z,4.30
2023-03-01T08:26:05.199Z,4.38
2023-03-01T08:28:37.755Z,4.36
2023-03-01T08:31:18.733Z,4.40
2023-03-01T08:33:55.735Z,4.42
2023-03-01T08:36:30.444Z,4.35
2023-03-01T08:39:04.000Z,4.40
2023-03-01T08:41:36.754Z,4.51
2023-03-01T08:44:11.189Z,4.60
2023-03-01T08:46:45.768Z,4.51
2023-03-01T08:49:19.758Z,4.51
2023-03-01T08:51:52.156Z,4.51
2023-03-01T08:54:25.281Z,4.68
2023-03-01T08:56:59.340Z,4.63
2023-03-01T08:59:35.976Z,4.71
2023-03-01T09:02:13.326Z,4.64
2023-03-01T09:04:45.875Z,4.81
2023-03-01T09:07:18.256Z,4.86
2023-03-01T09:09:53.654Z,4.83
2023-03-01T09:12:26.153Z,4.90
2023-03-01T09:14:58.627Z,5.04
2023-03-01T09:17:31.094Z,5.00
2023-03-01T09:20:05.980Z,5.15
2023-03-01T09:22:38.363Z,5.18
2023-03-01T09:25:11.539Z,5.16
2023-03-01T09:27:43.946Z,5.20
2023-03-01T09:30:16.936Z,5.19
2023-03-01T09:32:49.355Z,5.10
2023-03-01T09:35:22.991Z,5.36
2023-03-01T09:37:55.500Z,5.44
2023-03-01T09:40:35.858Z,5.24
2023-03-01T09:43:20.509Z,5.40
2023-03-01T09:45:55.611Z,5.31
2023-03-01T09:48:33.906Z,5.37
2023-03-01T09:51:13.221Z,5.40
2023-03-01T09:53:45.767Z,5.44
2023-03-01T09:56:23.514Z,5.37
2023-03-01T09:59:03.029Z,5.62
2023-03-01T10:01:39.310Z,5.63
2023-03-01T10:04:28.583Z,5.44
2023-03-01T10:07:15.114Z,5.39
2023-03-01T10:09:48.392Z,5.46
2023-03-01T10:12:26.113Z,5.66
2023-03-01T10:15:03.265Z,5.67
2023-03-01T10:17:38.264Z,5.56
2023-03-01T10:20:21.938Z,5.63
2023-03-01T10:22:55.539Z,5.59
2023-03-01T10:25:43.938Z,5.77
2023-03-01T10:28:25.327Z,5.77
2023-03-01T10:30:59.688Z,5.69
2023-03-01T10:33:36.141Z,5.60
2023-03-01T10:36:09.000Z,5.69
2023-03-01T10:38:55.318Z,5.62
2023-03-01T10:41:28.074Z,5.42
2023-03-01T10:44:01.386Z,5.48
2023-03-01T10:46:35.320Z,5.56
2023-03-01T10:49:15.577Z,5.56
2023-03-01T10:51:50.264Z,5.45
2023-03-01T10:54:28.064Z,5.43
2023-03-01T10:57:03.344Z,5.56
2023-03-01T10:59:38.156Z,5.61
2023-03-01T11:02:25.056Z,5.67
2023-03-01T11:05:03.245Z,5.56
2023-03-01T11:07:48.264Z,5.62
2023-03-01T11:10:23.348Z,5.59
2023-03-01T11:13:07.918Z,5.72
2023-03-01T11:15:41.081Z,5.72
2023-03-01T11:18:26.612Z,5.71
2023-03-01T11:21:06.670Z,5.76
2023-03-01T11:23:40.682Z,5.84
2023-03-01T11:26:15.750Z,5.92
2023-03-01T11:28:54.727Z,5.88
2023-03-01T11:31:29.770Z,5.85
2023-03-01T11:34:11.145Z,5.82
2023-03-01T11:36:48.869Z,5.87
2023-03-01T11:39:29.533Z,5.72
2023-03-01T11:42:18.450Z,5.77
2023-03-01T11:44:55.266Z,5.76
2023-03-01T11:47:55.012Z,5.72
2023-03-01T11:50:40.587Z,5.92
2023-03-01T11:53:46.027Z,5.96
2023-03-01T11:56:29.710Z,6.00
2023-03-01T11:59:21.245Z,6.01
2023-03-01T12:02:12.912Z,5.96
2023-03-01T12:05:01.857Z,5.94
2023-03-01T12:07:46.353Z,6.03
2023-03-01T12:10:26.765Z,6.00
2023-03-01T12:13:23.824Z,6.00
2023-03-01T12:16:17.622Z,6.00
2023-03-01T12:19:25.783Z,5.91
2023-03-01T12:22:31.523Z,5.93
2023-03-01T12:25:26.961Z,6.07
2023-03-01T12:28:20.505Z,6.02
2023-03-01T12:31:12.760Z,5.96
2023-03-01T12:33:53.452Z,6.12
2023-03-01T12:36:40.193Z,6.09
2023-03-01T12:39:29.860Z,6.20
2023-03-01T12:42:13.005Z,6.21
2023-03-01T12:45:11.858Z,6.26
2023-03-01T12:47:56.824Z,6.29
2023-03-01T12:50:41.195Z,6.37
2023-03-01T12:53:23.443Z,6.49
2023-03-01T12:56:01.452Z,6.51
2023-03-01T12:58:48.849Z,6.50
2023-03-01T13:01:32.996Z,6.56
2023-03-01T13:04:36.847Z,6.68
2023-03-01T13:07:30.019Z,6.53
2023-03-01T13:10:16.733Z,6.51
2023-03-01T13:13:02.873Z,6.60
2023-03-01T13:15:36.762Z,6.63
2023-03-01T13:18:29.281Z,6.51
2023-03-01T13:21:03.777Z,6.39
2023-03-01T13:23:38.630Z,6.36
2023-03-01T13:26:14.631Z,6.28
2023-03-01T13:28:53.253Z,6.35
2023-03-01T13:32:01.942Z,6.34
2023-03-01T13:34:42.562Z,6.26
2023-03-01T13:37:26.502Z,6.12
2023-03-01T13:40:04.880Z,6.14
2023-03-01T13:42:40.616Z,6.12
2023-03-01T13:45:33.557Z,6.17
2023-03-01T13:48:11.687Z,6.27
2023-03-01T13:50:48.671Z,6.22
2023-03-01T13:53:24.284Z,6.22
2023-03-01T13:55:59.909Z,6.25
2023-03-01T13:58:44.192Z,6.15
2023-03-01T14:01:26.027Z,6.00
2023-03-01T14:03:59.424Z,6.02
2023-03-01T14:06:35.994Z,6.09
2023-03-01T14:09:17.065Z,6.13
2023-03-01T14:12:16.103Z,6.10
2023-03-01T14:14:56.753Z,6.12
2023-03-01T14:17:59.725Z,6.11
2023-03-01T14:20:38.141Z,6.23
2023-03-01T14:23:14.478Z,6.18
2023-03-01T14:25:49.516Z,6.04
2023-03-01T14:28:26.615Z,6.01
2023-03-01T14:31:00.895Z,6.08
2023-03-01T14:33:36.594Z,5.97
2023-03-01T14:36:11.755Z,5.84
2023-03-01T14:38:46.040Z,5.77
2023-03-01T14:41:20.377Z,5.84
2023-03-01T14:43:58.294Z,5.81
2023-03-01T14:46:34.215Z,5.74
2023-03-01T14:49:12.033Z,5.70
2023-03-01T14:51:57.893Z,5.59
2023-03-01T14:54:40.382Z,5.61
2023-03-01T14:57:16.465Z,5.58
2023-03-01T14:59:51.014Z,5.49
2023-03-01T15:02:25.488Z,5.35
2023-03-01T15:05:01.148Z,5.21
2023-03-01T15:07:37.483Z,5.29
2023-03-01T15:10:20.278Z,5.25
2023-03-01T15:12:53.615Z,5.09
2023-03-01T15:15:36.017Z,5.00
2023-03-01T15:18:17.506Z,5.08
2023-03-01T15:20:51.603Z,5.13
2023-03-01T15:23:26.047Z,5.05
2023-03-01T15:25:59.095Z,4.96
2023-03-01T15:28:34.009Z,4.97
2023-03-01T15:31:19.754Z,4.93
2023-03-01T15:33:52.680Z,4.92
2023-03-01T15:36:37.308Z,4.73
2023-03-01T15:39:31.364Z,4.69
2023-03-01T15:42:05.254Z,4.69
2023-03-01T15:44:43.776Z,4.63
2023-03-01T15:47:31.300Z,4.60
2023-03-01T15:50:04.099Z,4.53
2023-03-01T15:52:41.801Z,4.50
2023-03-01T15:55:18.005Z,4.46
2023-03-01T15:57:58.110Z,4.41
2023-03-01T16:00:30.796Z,4.44
2023-03-01T16:03:03.228Z,4.38
2023-03-01T16:05:36.504Z,4.45
2023-03-01T16:08:09.750Z,4.40
2023-03-01T16:10:43.987Z,4.39
2023-03-01T16:13:17.521Z,4.38
2023-03-01T16:15:49.917Z,4.39
2023-03-01T16:18:22.572Z,4.37
2023-03-01T16:20:54.950Z,4.22
2023-03-01T16:23:27.902Z,4.22
2023-03-01T16:26:01.046Z,4.25
2023-03-01T16:28:33.370Z,4.27
2023-03-01T16:31:06.008Z,4.27
2023-03-01T16:33:39.003Z,4.27
2023-03-01T16:36:12.688Z,4.21
2023-03-01T16:38:46.199Z,4.11
2023-03-01T16:41:23.802Z,4.10
2023-03-01T16:43:56.121Z,4.07
2023-03-01T16:46:29.650Z,4.10
2023-03-01T16:49:03.272Z,4.01
2023-03-01T16:51:36.601Z,3.99
2023-03-01T16:54:11.164Z,3.99
2023-03-01T16:56:43.469Z,4.01
2023-03-01T16:59:15.809Z,3.95
2023-03-01T17:01:48.209Z,4.03
2023-03-01T17:04:20.557Z,4.08
2023-03-01T17:06:52.965Z,4.18
2023-03-01T17:09:26.005Z,4.11
2023-03-01T17:11:58.417Z,4.14
2023-03-01T17:14:30.785Z,4.14
2023-03-01T17:17:03.206Z,4.27
2023-03-01T17:19:39.938Z,4.33
2023-03-01T17:22:13.839Z,4.37
2023-03-01T17:24:46.844Z,4.35
2023-03-01T17:27:19.249Z,4.40
2023-03-01T17:29:51.638Z,4.41
2023-03-01T17:32:24.258Z,4.41
2023-03-01T17:34:56.706Z,4.31
2023-03-01T17:37:29.170Z,4.32
2023-03-01T17:40:03.055Z,4.37
2023-03-01T17:42:35.455Z,4.40
2023-03-01T17:45:08.376Z,4.33
2023-03-01T17:47:40.758Z,4.42
2023-03-01T17:50:13.256Z,4.42
2023-03-01T17:52:45.673Z,4.43
2023-03-01T17:55:18.949Z,4.52
2023-03-01T17:57:51.573Z,4.52
2023-03-01T18:00:24.738Z,4.54
2023-03-01T18:02:57.243Z,4.64
2023-03-01T18:05:32.625Z,4.60
2023-03-01T18:08:05.328Z,4.67
2023-03-01T18:10:38.382Z,4.64
2023-03-01T18:13:14.284Z,4.62
2023-03-01T18:15:46.643Z,4.58
2023-03-01T18:18:19.080Z,4.59
2023-03-01T18:20:55.842Z,4.57
2023-03-01T18:23:30.036Z,4.69
2023-03-01T18:26:05.928Z,4.75
2023-03-01T18:28:39.330Z,4.68
2023-03-01T18:31:11.793Z,4.70
2023-03-01T18:33:45.231Z,4.73
2023-03-01T18:36:19.861Z,4.72
2023-03-01T18:38:53.053Z,4.67
2023-03-01T18:41:27.870Z,4.60
2023-03-01T18:44:02.046Z,4.54
2023-03-01T18:46:37.920Z,4.67
2023-03-01T18:49:10.646Z,4.74
2023-03-01T18:51:43.577Z,4.79
2023-03-01T18:54:16.506Z,4.78
2023-03-01T18:56:49.512Z,4.77
2023-03-01T18:59:22.014Z,4.69
2023-03-01T19:01:54.416Z,4.76
2023-03-01T19:04:26.936Z,4.78
2023-03-01T19:07:01.427Z,4.74
2023-03-01T19:09:34.284Z,4.67
2023-03-01T19:12:07.549Z,4.50
2023-03-01T19:14:39.975Z,4.54
2023-03-01T19:17:12.304Z,4.47
2023-03-01T19:19:45.949Z,4.46
2023-03-01T19:22:19.227Z,4.54
2023-03-01T19:24:51.566Z,4.62
2023-03-01T19:27:24.616Z,4.60
2023-03-01T19:29:57.021Z,4.54
2023-03-01T19:32:29.415Z,4.62
2023-03-01T19:35:01.915Z,4.67
2023-03-01T19:37:34.412Z,4.65
2023-03-01T19:40:08.507Z,4.66
2023-03-01T19:42:41.509Z,4.57
2023-03-01T19:45:14.735Z,4.68
2023-03-01T19:47:48.400Z,4.57
2023-03-01T19:50:20.837Z,4.45
2023-03-01T19:52:53.420Z,4.43
2023-03-01T19:55:25.944Z,4.44
2023-03-01T19:57:58.956Z,4.42
2023-03-01T20:00:31.380Z,4.43
2023-03-01T20:03:03.984Z,4.44
2023-03-01T20:05:37.216Z,4.47
2023-03-01T20:08:09.977Z,4.53
2023-03-01T20:10:43.403Z,4.50
2023-03-01T20:13:20.577Z,4.48
2023-03-01T20:15:55.998Z,4.50
2023-03-01T20:18:28.615Z,4.39
2023-03-01T20:21:01.799Z,4.42
2023-03-01T20:23:35.661Z,4.47
2023-03-01T20:26:14.366Z,4.42
2023-03-01T20:28:49.173Z,4.33
2023-03-01T20:31:28.699Z,4.27
2023-03-01T20:34:01.674Z,4.26
2023-03-01T20:36:35.151Z,4.10
2023-03-01T20:39:11.013Z,4.06
2023-03-01T20:41:43.536Z,3.95
2023-03-01T20:44:16.592Z,3.96
2023-03-01T20:46:50.063Z,3.88
2023-03-01T20:49:22.581Z,3.81
2023-03-01T20:51:54.917Z,3.80
2023-03-01T20:54:27.598Z,3.84
2023-03-01T20:56:59.936Z,3.86
2023-03-01T20:59:34.267Z,3.83
2023-03-01T21:02:07.112Z,3.87
2023-03-01T21:04:39.659Z,3.85
2023-03-01T21:07:12.265Z,3.76
2023-03-01T21:09:44.833Z,3.72
2023-03-01T21:12:18.047Z,3.64
2023-03-01T21:14:51.112Z,3.55
2023-03-01T21:17:23.472Z,3.55
2023-03-01T21:19:55.813Z,3.58
2023-03-01T21:22:28.494Z,3.57
2023-03-01T21:25:01.071Z,3.46
2023-03-01T21:27:36.451Z,3.46
2023-03-01T21:30:11.157Z,3.54
2023-03-01T21:32:43.751Z,3.47
2023-03-01T21:35:16.388Z,3.48
2023-03-01T21:37:48.750Z,3.52
2023-03-01T21:40:21.061Z,3.48
2023-03-01T21:42:53.359Z,3.60
2023-03-01T21:45:26.410Z,3.60
2023-03-01T21:47:58.788Z,3.66
2023-03-01T21:50:31.162Z,3.76
2023-03-01T21:53:04.609Z,3.80
2023-03-01T21:55:36.986Z,3.74
2023-03-01T21:58:09.317Z,3.72
2023-03-01T22:00:42.403Z,3.76
2023-03-01T22:03:15.538Z,3.71
2023-03-01T22:05:54.280Z,3.71
2023-03-01T22:08:27.734Z,3.80
2023-03-01T22:11:02.056Z,3.82
2023-03-01T22:13:34.392Z,3.77
2023-03-01T22:16:07.837Z,3.72
2023-03-01T22:18:40.237Z,3.65
2023-03-01T22:21:12.757Z,3.72
2023-03-01T22:23:45.667Z,3.79
2023-03-01T22:26:22.512Z,3.76
2023-03-01T22:28:56.553Z,3.71
2023-03-01T22:31:30.235Z,3.78
2023-03-01T22:34:03.084Z,3.65
2023-03-01T22:36:35.848Z,3.70
2023-03-01T22:39:08.492Z,3.71
2023-03-01T22:41:43.496Z,3.76
2023-03-01T22:44:18.278Z,3.68
2023-03-01T22:46:52.228Z,3.63
2023-03-01T22:49:24.623Z,3.62
2023-03-01T22:51:56.920Z,3.62
2023-03-01T22:54:29.237Z,3.60
2023-03-01T22:57:02.968Z,3.53
2023-03-01T22:59:35.518Z,3.66
2023-03-01T23:02:08.721Z,3.63
2023-03-01T23:04:41.750Z,3.71
2023-03-01T23:07:14.410Z,3.62
2023-03-01T23:09:46.704Z,3.63
2023-03-01T23:12:19.144Z,3.53
2023-03-01T23:14:51.702Z,3.54
2023-03-01T23:17:24.906Z,3.61
2023-03-01T23:19:57.237Z,3.59
2023-03-01T23:22:30.823Z,3.53
2023-03-01T23:25:03.580Z,3.54
2023-03-01T23:27:36.611Z,3.54
2023-03-01T23:30:09.891Z,3.57
2023-03-01T23:32:43.016Z,3.52
2023-03-01T23:35:15.778Z,3.53
2023-03-01T23:37:48.206Z,3.52
2023-03-01T23:40:20.536Z,3.48
2023-03-01T23:42:52.988Z,3.47
2023-03-01T23:45:25.350Z,3.31
2023-03-01T23:47:58.455Z,3.34
2023-03-01T23:50:30.717Z,3.34
2023-03-01T23:53:03.145Z,3.30
2023-03-01T23:55:37.669Z,3.35
2023-03-01T23:58:09.955Z,3.41
